Terminal Aerodrome Forecast
Issued by NWS Cleveland, OH

Home | Current Version | Previous Version | Graphics & Text | Print | Product List | Glossary On
Versions: 1 2 3 4 5 6 7 8 9 10 11 12 13 14 15 16 17
000
FTUS41 KCLE 212200 AAB
TAFERI
TAF AMD
KERI 212228Z 2122/2218 31008KT P6SM BKN025
     FM220200 23007KT P6SM BKN035
     FM220900 23006KT 5SM BR VCSH SCT040 BKN100
     FM221200 24006KT 6SM BR VCSH BKN035 BKN100=

USA.gov is the U.S. government's official web portal to all federal, state and local government web resources and services.